Time,TemperatureF,DewpointF,PressureIn,WindDirection,WindDirectionDegrees,WindSpeedMPH,WindSpeedGustMPH,Humidity,HourlyPrecipIn,Conditions,Clouds,dailyrainin,SoftwareType,DateUTC
2013-05-27 07:34:00,62.6,25.3,30.27,West,265,3.6,3.6,24,0.00,,---,0.00,VWS V14.01,2013-05-27 11:34:00,
2013-05-27 07:35:00,62.6,25.3,30.27,West,266,0.0,3.6,24,0.00,,---,0.00,VWS V14.01,2013-05-27 11:35:00,
2013-05-27 07:36:00,62.6,25.3,30.27,West,268,0.0,3.6,24,0.00,,---,0.00,VWS V14.01,2013-05-27 11:36:00,
2013-05-27 07:37:00,62.8,25.5,30.27,WNW,289,5.0,5.0,24,0.00,,---,0.00,VWS V14.01,2013-05-27 11:37:00,
2013-05-27 07:42:00,63.1,25.8,30.27,WSW,247,5.0,8.6,24,0.00,,---,0.00,VWS V14.01,2013-05-27 11:42:00,
2013-05-27 07:47:00,63.5,26.1,30.27,West,277,0.0,0.0,24,0.00,,---,0.00,VWS V14.01,2013-05-27 11:47:00,
2013-05-27 07:52:00,63.5,26.1,30.27,WSW,249,4.3,4.3,24,0.00,,---,0.00,VWS V14.01,2013-05-27 11:52:00,
2013-05-27 07:57:00,63.5,26.1,30.27,WSW,249,4.3,4.3,24,0.00,,---,0.00,VWS V14.01,2013-05-27 11:57:00,
2013-05-27 08:02:00,63.5,26.1,30.27,West,278,7.9,7.9,24,0.00,,---,0.00,VWS V14.01,2013-05-27 12:02:00,
2013-05-27 08:07:00,63.5,26.1,30.27,West,278,7.9,7.9,24,0.00,,---,0.00,VWS V14.01,2013-05-27 12:07:00,
2013-05-27 08:12:00,63.5,26.1,30.27,NW,310,6.4,6.4,24,0.00,,---,0.00,VWS V14.01,2013-05-27 12:12:00,
2013-05-27 08:17:00,63.5,26.1,30.27,West,273,6.4,6.4,24,0.00,,---,0.00,VWS V14.01,2013-05-27 12:17:00,
2013-05-27 08:22:00,63.5,26.1,30.27,West,273,6.4,6.4,24,0.00,,---,0.00,VWS V14.01,2013-05-27 12:22:00,
2013-05-27 08:27:00,63.5,26.1,30.27,SW,214,10.0,10.0,24,0.00,,---,0.00,VWS V14.01,2013-05-27 12:27:00,
2013-05-27 08:32:00,63.5,26.1,30.27,WNW,282,5.0,5.0,24,0.00,,---,0.00,VWS V14.01,2013-05-27 12:32:00,
2013-05-27 08:37:00,63.5,26.1,30.27,West,262,6.4,6.4,24,0.00,,---,0.00,VWS V14.01,2013-05-27 12:37:00,
2013-05-27 08:42:00,63.5,26.1,30.27,SW,218,8.6,8.6,24,0.00,,---,0.00,VWS V14.01,2013-05-27 12:42:00,
2013-05-27 08:47:00,63.5,26.1,30.27,West,277,5.0,5.0,24,0.00,,---,0.00,VWS V14.01,2013-05-27 12:47:00,
2013-05-27 08:52:00,63.5,26.1,30.27,West,276,5.0,5.0,24,0.00,,---,0.00,VWS V14.01,2013-05-27 12:52:00,
2013-05-27 08:57:00,63.5,26.1,30.27,West,276,5.0,5.0,24,0.00,,---,0.00,VWS V14.01,2013-05-27 12:57:00,
2013-05-27 09:02:00,63.5,26.1,30.27,WSW,255,6.4,8.6,24,0.00,,---,0.00,VWS V14.01,2013-05-27 13:02:00,
2013-05-27 09:07:00,63.5,26.1,30.27,WSW,255,6.4,6.4,24,0.00,,---,0.00,VWS V14.01,2013-05-27 13:07:00,
2013-05-27 09:12:00,63.5,26.1,30.27,West,272,9.3,9.3,24,0.00,,---,0.00,VWS V14.01,2013-05-27 13:12:00,
2013-05-27 09:17:00,63.5,26.1,30.27,West,270,0.0,5.7,24,0.00,,---,0.00,VWS V14.01,2013-05-27 13:17:00,
2013-05-27 09:22:00,63.5,26.1,30.27,West,270,0.0,0.0,24,0.00,,---,0.00,VWS V14.01,2013-05-27 13:22:00,
2013-05-27 09:27:00,63.5,26.1,30.27,WSW,243,4.3,4.3,24,0.00,,---,0.00,VWS V14.01,2013-05-27 13:27:00,
2013-05-27 09:32:00,63.5,26.1,30.27,WSW,243,4.3,4.3,24,0.00,,---,0.00,VWS V14.01,2013-05-27 13:32:00,
2013-05-27 09:37:00,63.5,26.1,30.27,West,273,8.6,8.6,24,0.00,,---,0.00,VWS V14.01,2013-05-27 13:37:00,
2013-05-27 09:42:00,63.5,26.1,30.27,West,273,8.6,8.6,24,0.00,,---,0.00,VWS V14.01,2013-05-27 13:42:00,
2013-05-27 09:47:00,63.5,26.1,30.27,West,270,10.0,10.0,24,0.00,,---,0.00,VWS V14.01,2013-05-27 13:47:00,
2013-05-27 09:52:00,63.5,26.1,30.27,WSW,246,8.6,8.6,24,0.00,,---,0.00,VWS V14.01,2013-05-27 13:52:00,
2013-05-27 09:57:00,63.5,26.1,30.27,WNW,283,5.0,5.0,24,0.00,,---,0.00,VWS V14.01,2013-05-27 13:57:00,
2013-05-27 10:02:00,63.5,26.1,30.27,WNW,283,5.0,5.0,24,0.00,,---,0.00,VWS V14.01,2013-05-27 14:02:00,
2013-05-27 10:07:00,63.5,26.1,30.27,WNW,283,5.0,5.0,24,0.00,,---,0.00,VWS V14.01,2013-05-27 14:07:00,
2013-05-27 10:12:00,63.5,26.1,30.27,SW,223,8.6,8.6,24,0.00,,---,0.00,VWS V14.01,2013-05-27 14:12:00,
2013-05-27 10:17:00,63.5,26.1,30.27,SW,223,8.6,8.6,24,0.00,,---,0.00,VWS V14.01,2013-05-27 14:17:00,
2013-05-27 10:22:00,63.5,26.1,30.27,WSW,244,6.4,6.4,24,0.00,,---,0.00,VWS V14.01,2013-05-27 14:22:00,
2013-05-27 10:27:00,63.5,26.1,30.27,WSW,253,5.7,5.7,24,0.00,,---,0.00,VWS V14.01,2013-05-27 14:27:00,
2013-05-27 10:32:00,63.5,26.1,30.27,WNW,289,12.2,12.2,24,0.00,,---,0.00,VWS V14.01,2013-05-27 14:32:00,
2013-05-27 10:37:00,63.5,26.1,30.27,West,280,0.0,0.0,24,0.00,,---,0.00,VWS V14.01,2013-05-27 14:37:00,
2013-05-27 10:42:00,63.5,26.1,30.27,West,261,9.3,9.3,24,0.00,,---,0.00,VWS V14.01,2013-05-27 14:42:00,
2013-05-27 10:47:00,63.5,26.1,30.27,NNW,336,0.0,0.0,24,0.00,,---,0.00,VWS V14.01,2013-05-27 14:47:00,
2013-05-27 10:52:00,63.5,26.1,30.27,NNW,336,0.0,0.0,24,0.00,,---,0.00,VWS V14.01,2013-05-27 14:52:00,
2013-05-27 10:57:00,63.5,26.1,30.27,NNW,336,0.0,0.0,24,0.00,,---,0.00,VWS V14.01,2013-05-27 14:57:00,
2013-05-27 11:02:00,63.5,26.1,30.27,NNW,336,0.0,0.0,24,0.00,,---,0.00,VWS V14.01,2013-05-27 15:02:00,
2013-05-27 11:07:00,63.5,26.1,30.27,West,261,5.7,5.7,24,0.00,,---,0.00,VWS V14.01,2013-05-27 15:07:00,
2013-05-27 11:12:00,63.5,26.1,30.27,West,269,10.0,10.0,24,0.00,,---,0.00,VWS V14.01,2013-05-27 15:12:00,
2013-05-27 11:17:00,63.5,26.1,30.27,West,269,10.0,10.0,24,0.00,,---,0.00,VWS V14.01,2013-05-27 15:17:00,
2013-05-27 11:22:00,67.6,21.3,30.27,West,269,10.0,10.0,17,0.00,,---,0.00,VWS V14.01,2013-05-27 15:22:00,
2013-05-27 11:27:00,67.6,21.3,30.27,West,269,10.0,10.0,17,0.00,,---,0.00,VWS V14.01,2013-05-27 15:27:00,
2013-05-27 11:32:00,68.0,21.6,30.27,West,269,10.0,10.0,17,0.00,,---,0.00,VWS V14.01,2013-05-27 15:32:00,
2013-05-27 11:37:00,68.5,22.0,30.27,West,269,10.0,10.0,17,0.00,,---,0.00,VWS V14.01,2013-05-27 15:37:00,
2013-05-27 11:42:00,68.5,22.0,30.27,West,269,10.0,10.0,17,0.00,,---,0.00,VWS V14.01,2013-05-27 15:42:00,
2013-05-27 11:47:00,68.9,22.3,30.27,West,269,10.0,10.0,17,0.00,,---,0.00,VWS V14.01,2013-05-27 15:47:00,
2013-05-27 11:52:00,68.9,22.3,30.27,West,269,10.0,10.0,17,0.00,,---,0.00,VWS V14.01,2013-05-27 15:52:00,
2013-05-27 11:57:00,69.4,22.8,30.27,West,269,10.0,10.0,17,0.00,,---,0.00,VWS V14.01,2013-05-27 15:57:00,
2013-05-27 12:02:00,69.4,22.8,30.27,West,269,10.0,10.0,17,0.00,,---,0.00,VWS V14.01,2013-05-27 16:02:00,
2013-05-27 12:07:00,69.4,22.8,30.27,West,269,10.0,10.0,17,0.00,,---,0.00,VWS V14.01,2013-05-27 16:07:00,
2013-05-27 12:12:00,70.2,23.4,30.27,West,269,10.0,10.0,17,0.00,,---,0.00,VWS V14.01,2013-05-27 16:12:00,
2013-05-27 12:17:00,70.2,23.4,30.27,West,269,10.0,10.0,17,0.00,,---,0.00,VWS V14.01,2013-05-27 16:17:00,
2013-05-27 12:22:00,70.7,23.8,30.27,West,269,10.0,10.0,17,0.00,,---,0.00,VWS V14.01,2013-05-27 16:22:00,
2013-05-27 12:27:00,70.7,23.8,30.27,West,269,10.0,10.0,17,0.00,,---,0.00,VWS V14.01,2013-05-27 16:27:00,
2013-05-27 12:32:00,70.9,23.9,30.27,West,269,10.0,10.0,17,0.00,,---,0.00,VWS V14.01,2013-05-27 16:32:00,
2013-05-27 12:37:00,70.9,23.9,30.27,West,269,10.0,10.0,17,0.00,,---,0.00,VWS V14.01,2013-05-27 16:37:00,
2013-05-27 12:42:00,71.2,24.2,30.27,West,269,10.0,10.0,17,0.00,,---,0.00,VWS V14.01,2013-05-27 16:42:00,
2013-05-27 12:47:00,71.6,23.1,30.27,West,269,10.0,10.0,16,0.00,,---,0.00,VWS V14.01,2013-05-27 16:47:00,
2013-05-27 12:52:00,71.6,23.1,30.27,West,269,10.0,10.0,16,0.00,,---,0.00,VWS V14.01,2013-05-27 16:52:00,
2013-05-27 12:57:00,72.1,23.5,30.27,West,269,10.0,10.0,16,0.00,,---,0.00,VWS V14.01,2013-05-27 16:57:00,
2013-05-27 13:02:00,72.1,23.5,30.27,West,269,10.0,10.0,16,0.00,,---,0.00,VWS V14.01,2013-05-27 17:02:00,
2013-05-27 13:07:00,72.5,23.8,30.27,West,269,10.0,10.0,16,0.00,,---,0.00,VWS V14.01,2013-05-27 17:07:00,
2013-05-27 13:12:00,72.9,24.1,30.27,West,269,10.0,10.0,16,0.00,,---,0.00,VWS V14.01,2013-05-27 17:12:00,
2013-05-27 13:17:00,72.9,24.1,30.27,West,269,10.0,10.0,16,0.00,,---,0.00,VWS V14.01,2013-05-27 17:17:00,
2013-05-27 13:22:00,73.4,24.5,30.27,West,269,10.0,10.0,16,0.00,,---,0.00,VWS V14.01,2013-05-27 17:22:00,
2013-05-27 13:27:00,73.4,24.5,30.27,West,269,10.0,10.0,16,0.00,,---,0.00,VWS V14.01,2013-05-27 17:27:00,
2013-05-27 13:32:00,73.8,24.8,30.27,West,269,10.0,10.0,16,0.00,,---,0.00,VWS V14.01,2013-05-27 17:32:00,
2013-05-27 13:37:00,74.1,25.1,30.27,West,269,10.0,10.0,16,0.00,,---,0.00,VWS V14.01,2013-05-27 17:37:00,
2013-05-27 13:42:00,74.3,25.2,30.27,West,269,10.0,10.0,16,0.00,,---,0.00,VWS V14.01,2013-05-27 17:42:00,
2013-05-27 13:47:00,74.5,25.4,30.27,West,269,10.0,10.0,16,0.00,,---,0.00,VWS V14.01,2013-05-27 17:47:00,
2013-05-27 13:52:00,74.5,25.4,30.27,West,269,10.0,10.0,16,0.00,,---,0.00,VWS V14.01,2013-05-27 17:52:00,
2013-05-27 13:57:00,74.7,25.5,30.27,West,269,10.0,10.0,16,0.00,,---,0.00,VWS V14.01,2013-05-27 17:57:00,
2013-05-27 14:02:00,74.7,25.5,30.18,West,269,10.0,10.0,16,0.00,,---,0.00,VWS V14.01,2013-05-27 18:02:00,
2013-05-27 14:07:00,74.8,25.7,30.18,West,269,10.0,10.0,16,0.00,,---,0.00,VWS V14.01,2013-05-27 18:07:00,
2013-05-27 14:12:00,74.8,25.7,30.18,West,269,10.0,10.0,16,0.00,,---,0.00,VWS V14.01,2013-05-27 18:12:00,
2013-05-27 14:17:00,75.4,24.6,30.18,West,269,10.0,10.0,15,0.00,,---,0.00,VWS V14.01,2013-05-27 18:17:00,
2013-05-27 14:22:00,75.7,24.9,30.18,West,269,10.0,10.0,15,0.00,,---,0.00,VWS V14.01,2013-05-27 18:22:00,
2013-05-27 14:27:00,75.7,24.9,30.18,West,269,10.0,10.0,15,0.00,,---,0.00,VWS V14.01,2013-05-27 18:27:00,
2013-05-27 14:32:00,75.9,25.0,30.18,West,269,10.0,10.0,15,0.00,,---,0.00,VWS V14.01,2013-05-27 18:32:00,
2013-05-27 14:37:00,76.1,25.1,30.18,West,269,10.0,10.0,15,0.00,,---,0.00,VWS V14.01,2013-05-27 18:37:00,
2013-05-27 14:42:00,76.3,25.3,30.18,West,269,10.0,10.0,15,0.00,,---,0.00,VWS V14.01,2013-05-27 18:42:00,
2013-05-27 14:47:00,76.5,25.4,30.18,West,269,10.0,10.0,15,0.00,,---,0.00,VWS V14.01,2013-05-27 18:47:00,
2013-05-27 14:52:00,76.5,25.4,30.18,West,269,10.0,10.0,15,0.00,,---,0.00,VWS V14.01,2013-05-27 18:52:00,
2013-05-27 14:57:00,76.6,25.6,30.18,West,269,10.0,10.0,15,0.00,,---,0.00,VWS V14.01,2013-05-27 18:57:00,
2013-05-27 15:02:00,76.6,25.6,30.18,West,269,10.0,10.0,15,0.00,,---,0.00,VWS V14.01,2013-05-27 19:02:00,
2013-05-27 15:07:00,76.6,25.6,30.18,West,269,10.0,10.0,15,0.00,,---,0.00,VWS V14.01,2013-05-27 19:07:00,
2013-05-27 15:12:00,76.6,25.6,30.18,West,269,10.0,10.0,15,0.00,,---,0.00,VWS V14.01,2013-05-27 19:12:00,
2013-05-27 15:17:00,76.6,25.6,30.18,West,269,10.0,10.0,15,0.00,,---,0.00,VWS V14.01,2013-05-27 19:17:00,
2013-05-27 15:22:00,76.8,25.7,30.18,West,269,10.0,10.0,15,0.00,,---,0.00,VWS V14.01,2013-05-27 19:22:00,
2013-05-27 15:27:00,76.8,25.7,30.18,West,269,10.0,10.0,15,0.00,,---,0.00,VWS V14.01,2013-05-27 19:27:00,
2013-05-27 15:32:00,76.8,25.7,30.18,West,269,10.0,10.0,15,0.00,,---,0.00,VWS V14.01,2013-05-27 19:32:00,
2013-05-27 15:37:00,76.6,25.6,30.18,West,269,10.0,10.0,15,0.00,,---,0.00,VWS V14.01,2013-05-27 19:37:00,
2013-05-27 15:42:00,76.8,25.7,30.18,West,269,10.0,10.0,15,0.00,,---,0.00,VWS V14.01,2013-05-27 19:42:00,
2013-05-27 15:47:00,76.8,25.7,30.18,West,269,10.0,10.0,15,0.00,,---,0.00,VWS V14.01,2013-05-27 19:47:00,
2013-05-27 15:52:00,77.0,25.9,30.18,West,269,10.0,10.0,15,0.00,,---,0.00,VWS V14.01,2013-05-27 19:52:00,
2013-05-27 15:57:00,77.0,25.9,30.18,West,269,10.0,10.0,15,0.00,,---,0.00,VWS V14.01,2013-05-27 19:57:00,
2013-05-27 16:02:00,77.2,26.0,30.18,West,269,10.0,10.0,15,0.00,,---,0.00,VWS V14.01,2013-05-27 20:02:00,
2013-05-27 16:07:00,77.2,26.0,30.15,West,269,10.0,10.0,15,0.00,,---,0.00,VWS V14.01,2013-05-27 20:07:00,
2013-05-27 16:12:00,77.2,26.0,30.15,West,269,10.0,10.0,15,0.00,,---,0.00,VWS V14.01,2013-05-27 20:12:00,
2013-05-27 16:17:00,77.2,26.0,30.15,West,269,10.0,10.0,15,0.00,,---,0.00,VWS V14.01,2013-05-27 20:17:00,
2013-05-27 16:22:00,77.2,26.0,30.15,West,269,10.0,10.0,15,0.00,,---,0.00,VWS V14.01,2013-05-27 20:22:00,
2013-05-27 16:27:00,77.2,26.0,30.15,West,269,10.0,10.0,15,0.00,,---,0.00,VWS V14.01,2013-05-27 20:27:00,
2013-05-27 16:32:00,77.2,26.0,30.15,West,269,10.0,10.0,15,0.00,,---,0.00,VWS V14.01,2013-05-27 20:32:00,
2013-05-27 16:37:00,77.2,26.0,30.15,West,269,10.0,10.0,15,0.00,,---,0.00,VWS V14.01,2013-05-27 20:37:00,
2013-05-27 16:42:00,77.2,26.0,30.15,West,269,10.0,10.0,15,0.00,,---,0.00,VWS V14.01,2013-05-27 20:42:00,
2013-05-27 16:47:00,77.2,26.0,30.15,West,269,10.0,10.0,15,0.00,,---,0.00,VWS V14.01,2013-05-27 20:47:00,
2013-05-27 16:52:00,77.2,26.0,30.15,West,269,10.0,10.0,15,0.00,,---,0.00,VWS V14.01,2013-05-27 20:52:00,
2013-05-27 16:57:00,77.2,26.0,30.15,West,269,10.0,10.0,15,0.00,,---,0.00,VWS V14.01,2013-05-27 20:57:00,
2013-05-27 17:02:00,77.2,26.0,30.15,West,269,10.0,10.0,15,0.00,,---,0.00,VWS V14.01,2013-05-27 21:02:00,
2013-05-27 17:07:00,77.2,26.0,30.15,West,269,10.0,10.0,15,0.00,,---,0.00,VWS V14.01,2013-05-27 21:07:00,
2013-05-27 17:12:00,77.2,26.0,30.15,WNW,290,10.0,10.0,15,0.00,,---,0.00,VWS V14.01,2013-05-27 21:12:00,
2013-05-27 17:17:00,77.2,26.0,30.15,WNW,290,10.0,10.0,15,0.00,,---,0.00,VWS V14.01,2013-05-27 21:17:00,
2013-05-27 17:22:00,77.2,26.0,30.15,WNW,290,10.0,10.0,15,0.00,,---,0.00,VWS V14.01,2013-05-27 21:22:00,
2013-05-27 17:27:00,77.2,26.0,30.15,WNW,290,10.0,10.0,15,0.00,,---,0.00,VWS V14.01,2013-05-27 21:27:00,
2013-05-27 17:32:00,76.3,25.3,30.15,WNW,290,10.0,10.0,15,0.00,,---,0.00,VWS V14.01,2013-05-27 21:32:00,
2013-05-27 17:37:00,76.1,25.1,30.15,WNW,290,10.0,10.0,15,0.00,,---,0.00,VWS V14.01,2013-05-27 21:37:00,
2013-05-27 17:42:00,75.9,25.0,30.15,WSW,255,10.0,10.0,15,0.00,,---,0.00,VWS V14.01,2013-05-27 21:42:00,
2013-05-27 17:47:00,75.9,25.0,30.15,WSW,255,10.0,10.0,15,0.00,,---,0.00,VWS V14.01,2013-05-27 21:47:00,
2013-05-27 17:53:00,75.7,24.9,30.15,WSW,255,10.0,10.0,15,0.00,,---,0.00,VWS V14.01,2013-05-27 21:53:00,
2013-05-27 17:59:00,75.4,24.6,30.15,WSW,255,10.0,10.0,15,0.00,,---,0.00,VWS V14.01,2013-05-27 21:59:00,
2013-05-27 18:04:00,75.2,24.4,30.15,WSW,255,10.0,10.0,15,0.00,,---,0.00,VWS V14.01,2013-05-27 22:04:00,